Time;durP1;ratioP1;P1;durP2;ratioP2;P2;SDS_P1;SDS_P2;PMS_P1;PMS_P2;Temp;Humidity;BMP_temperature;BMP_pressure;BME280_temperature;BME280_humidity;BME280_pressure;Samples;Min_cycle;Max_cycle;Signal;HPM_P1;HPM_P2
2022/12/05 00:01:20;;;;;;;14.13;5.20;;;;;;;-6.79;68.99;101969.07;1686101;85;21074;-75
2022/12/05 00:03:48;;;;;;;7.40;4.40;;;;;;;-6.76;69.04;101963.66;1671557;83;21019;-76
2022/12/05 00:06:16;;;;;;;5.53;4.77;;;;;;;-6.75;69.08;101961.89;1668746;85;20981;-75
2022/12/05 00:08:44;;;;;;;8.93;6.07;;;;;;;-6.73;69.06;101963.52;1677895;84;21112;-74
2022/12/05 00:11:18;;;;;;;9.80;4.73;;;;;;;-6.74;69.04;101966.20;1683467;85;21635;-72
2022/12/05 00:13:45;;;;;;;6.27;4.03;;;;;;;-6.72;69.03;101972.21;1653947;86;21080;-74
2022/12/05 00:16:15;;;;;;;10.10;4.73;;;;;;;-6.72;69.02;101969.13;1679183;85;21576;-74
2022/12/05 00:18:42;;;;;;;4.97;4.47;;;;;;;-6.75;68.96;101974.97;1681681;85;20916;-72
2022/12/05 00:21:23;;;;;;;5.67;4.97;;;;;;;-6.85;69.25;101977.70;1682867;83;20976;-72
2022/12/05 00:23:51;;;;;;;5.57;4.57;;;;;;;-6.88;69.32;101974.80;1682568;85;21535;-73
2022/12/05 00:26:19;;;;;;;6.83;4.77;;;;;;;-6.85;69.40;101982.47;1682568;85;21161;-72
2022/12/05 00:28:45;;;;;;;13.67;4.53;;;;;;;-6.80;69.50;101968.68;1681104;85;20968;-72
2022/12/05 00:31:17;;;;;;;8.50;3.53;;;;;;;-6.79;69.36;101978.69;1683683;85;20991;-73
2022/12/05 00:33:44;;;;;;;8.70;5.37;;;;;;;-6.82;69.45;101973.63;1683923;85;21048;-71
2022/12/05 00:36:17;;;;;;;6.07;4.07;;;;;;;-6.83;69.55;101972.78;1682656;85;21561;-72
2022/12/05 00:38:44;;;;;;;6.97;4.60;;;;;;;-6.79;69.55;101973.45;1681985;84;21279;-72
2022/12/05 00:41:14;;;;;;;9.53;6.37;;;;;;;-6.82;69.51;101966.63;1630489;86;20997;-72
2022/12/05 00:43:40;;;;;;;8.70;5.07;;;;;;;-6.84;69.63;101955.39;1682203;85;20979;-72
2022/12/05 00:46:11;;;;;;;5.37;4.57;;;;;;;-6.84;69.73;101953.23;1655142;86;21094;-73
2022/12/05 00:48:38;;;;;;;8.30;4.57;;;;;;;-6.81;69.77;101955.22;1673332;84;21546;-71
2022/12/05 00:51:18;;;;;;;12.07;5.77;;;;;;;-6.84;69.82;101950.16;1664530;85;21119;-72
2022/12/05 00:53:45;;;;;;;9.57;5.13;;;;;;;-6.79;69.88;101953.83;1671979;85;21649;-71
2022/12/05 00:56:19;;;;;;;6.40;4.93;;;;;;;-6.84;69.93;101943.62;1671701;85;21028;-72
2022/12/05 00:58:45;;;;;;;12.07;5.07;;;;;;;-6.87;70.02;101944.26;1653113;85;21536;-72
2022/12/05 01:01:27;;;;;;;4.77;3.80;;;;;;;-6.83;70.17;101937.47;1671525;85;21049;-71
2022/12/05 01:03:56;;;;;;;8.48;5.53;;;;;;;-6.77;70.14;101946.30;1696733;84;21183;-71
2022/12/05 01:06:25;;;;;;;8.03;4.20;;;;;;;-6.78;70.00;101943.75;1698244;84;21070;-70
2022/12/05 01:08:53;;;;;;;8.17;4.57;;;;;;;-6.80;70.00;101942.52;1678247;84;21563;-71
2022/12/05 01:11:19;;;;;;;8.23;4.77;;;;;;;-6.78;70.06;101939.83;1669723;85;21058;-72
2022/12/05 01:13:46;;;;;;;4.70;4.07;;;;;;;-6.78;70.15;101938.06;1675550;84;21008;-71
2022/12/05 01:16:22;;;;;;;9.27;5.20;;;;;;;-6.80;70.20;101938.59;1698453;84;20953;-71
2022/12/05 01:18:48;;;;;;;5.97;4.20;;;;;;;-6.83;70.27;101939.23;1681207;84;21031;-73
2022/12/05 01:21:15;;;;;;;7.80;4.43;;;;;;;-6.83;70.34;101940.08;1670401;85;21087;-73
2022/12/05 01:23:41;;;;;;;10.37;5.20;;;;;;;-6.81;70.38;101933.47;1669945;85;21709;-71
2022/12/05 01:26:11;;;;;;;6.87;4.40;;;;;;;-6.93;70.58;101929.73;1670181;85;21569;-72
2022/12/05 01:28:38;;;;;;;6.43;4.73;;;;;;;-7.01;70.87;101918.00;1670634;84;21098;-70
2022/12/05 01:31:06;;;;;;;11.77;4.63;;;;;;;-7.07;71.08;101922.64;1644390;85;21061;-72
2022/12/05 01:33:33;;;;;;;8.67;5.07;;;;;;;-7.02;71.24;101914.55;1669982;85;20982;-72
2022/12/05 01:36:02;;;;;;;12.33;5.13;;;;;;;-7.05;71.37;101912.92;1669988;85;20982;-71
2022/12/05 01:38:28;;;;;;;9.63;4.20;;;;;;;-7.07;71.43;101910.87;1640678;87;21559;-72
2022/12/05 01:41:02;;;;;;;7.37;4.17;;;;;;;-7.05;71.70;101907.69;1651532;85;21121;-71
2022/12/05 01:43:30;;;;;;;14.97;5.20;;;;;;;-7.02;71.72;101906.70;1674481;84;20968;-71
2022/12/05 01:45:56;;;;;;;7.93;4.57;;;;;;;-7.03;71.73;101898.47;1697893;84;20941;-71
2022/12/05 01:48:28;;;;;;;10.33;5.17;;;;;;;-7.02;71.77;101905.39;1687506;84;21094;-71
2022/12/05 01:50:55;;;;;;;7.23;4.83;;;;;;;-7.11;71.94;101900.20;1670455;85;21067;-74
2022/12/05 01:53:21;;;;;;;8.10;4.57;;;;;;;-7.21;72.19;101900.77;1669172;86;21648;-70
2022/12/05 01:55:49;;;;;;;8.60;4.00;;;;;;;-7.20;72.41;101904.62;1669126;85;20981;-70
2022/12/05 01:58:15;;;;;;;15.47;5.50;;;;;;;-7.23;72.75;101903.45;1676303;84;21116;-71
2022/12/05 02:00:42;;;;;;;9.27;5.70;;;;;;;-7.27;72.98;101905.86;1669380;84;21064;-70
2022/12/05 02:03:13;;;;;;;7.53;4.43;;;;;;;-7.35;73.21;101893.66;1673109;84;21056;-70
2022/12/05 02:05:40;;;;;;;10.57;4.83;;;;;;;-7.41;73.71;101888.75;1698759;83;21373;-71
2022/12/05 02:08:08;;;;;;;10.27;7.13;;;;;;;-7.42;73.96;101890.98;1680485;83;21511;-76
2022/12/05 02:10:49;;;;;;;13.53;7.13;;;;;;;-7.43;73.99;101888.47;1667685;85;21007;-70
2022/12/05 02:13:41;;;;;;;5.33;3.50;;;;;;;-7.51;74.40;101887.55;1669020;86;21007;-70
2022/12/05 02:16:23;;;;;;;8.60;5.63;;;;;;;-7.56;74.72;101891.70;1647750;84;20986;-70
2022/12/05 02:19:10;;;;;;;12.30;5.73;;;;;;;-7.58;75.00;101890.11;1678393;84;22186;-71
2022/12/05 02:22:33;;;;;;;9.70;4.87;;;;;;;-7.62;75.44;101896.39;1634672;85;21068;-72
2022/12/05 02:25:56;;;;;;;5.87;4.00;;;;;;;-7.63;75.59;101883.82;1669503;85;21054;-70
2022/12/05 02:28:49;;;;;;;10.82;5.50;;;;;;;-7.65;75.70;101883.05;1639976;87;21334;-71
2022/12/05 02:31:25;;;;;;;5.53;4.50;;;;;;;-7.70;75.91;101891.58;1606770;86;21146;-72
2022/12/05 02:34:25;;;;;;;8.13;5.10;;;;;;;-7.72;76.37;101888.19;1646001;85;21082;-71
2022/12/05 02:36:56;;;;;;;10.77;5.43;;;;;;;-7.68;76.32;101889.75;1628005;87;21081;-71
2022/12/05 02:39:46;;;;;;;12.63;5.37;;;;;;;-7.63;76.29;101886.44;1643486;86;21062;-71
2022/12/05 02:42:30;;;;;;;12.57;5.77;;;;;;;-7.61;76.35;101891.09;1643182;86;21134;-70
2022/12/05 02:45:06;;;;;;;6.83;4.53;;;;;;;-7.62;76.49;101896.39;1667697;84;21000;-72
2022/12/05 02:47:37;;;;;;;8.13;5.87;;;;;;;-7.58;76.53;101887.01;1693990;83;21090;-70
2022/12/05 02:50:06;;;;;;;8.27;5.13;;;;;;;-7.52;76.48;101893.69;1655239;85;21042;-70
2022/12/05 02:52:32;;;;;;;8.73;5.03;;;;;;;-7.58;76.41;101894.84;1669061;85;21241;-70
2022/12/05 02:54:59;;;;;;;9.97;4.50;;;;;;;-7.59;76.49;101890.57;1669213;85;21128;-69
2022/12/05 02:57:25;;;;;;;9.07;4.93;;;;;;;-7.58;76.62;101898.77;1669409;85;21050;-70
2022/12/05 02:59:53;;;;;;;12.37;6.17;;;;;;;-7.62;76.77;101892.47;1672339;84;21266;-71
2022/12/05 03:02:26;;;;;;;7.93;4.20;;;;;;;-7.67;76.90;101895.78;1668850;85;21058;-70
2022/12/05 03:04:55;;;;;;;10.10;6.70;;;;;;;-7.64;77.06;101891.73;1669049;85;21510;-69
2022/12/05 03:07:22;;;;;;;12.90;4.17;;;;;;;-7.66;77.09;101890.95;1669845;85;21143;-72
2022/12/05 03:09:58;;;;;;;13.23;6.13;;;;;;;-7.61;77.21;101895.48;1667630;85;21048;-80
2022/12/05 03:12:31;;;;;;;10.57;4.83;;;;;;;-7.62;77.18;101893.32;1668740;85;21331;-78
2022/12/05 03:15:02;;;;;;;7.43;5.40;;;;;;;-7.62;77.20;101889.86;1642508;85;21094;-76
2022/12/05 03:17:36;;;;;;;9.40;5.83;;;;;;;-7.65;77.30;101900.02;1667819;85;21033;-74
2022/12/05 03:20:17;;;;;;;11.17;7.53;;;;;;;-7.65;77.41;101899.17;1644396;85;21588;-74
2022/12/05 03:23:00;;;;;;;12.33;7.33;;;;;;;-7.67;77.54;101903.16;1666040;85;21039;-75
2022/12/05 03:25:35;;;;;;;7.07;5.67;;;;;;;-7.71;77.70;101904.25;1665638;85;21127;-75
2022/12/05 03:28:09;;;;;;;9.53;5.87;;;;;;;-7.73;77.93;101897.43;1669519;85;21040;-73
2022/12/05 03:30:37;;;;;;;13.37;5.63;;;;;;;-7.71;78.01;101900.33;1670588;84;21056;-76
2022/12/05 03:33:14;;;;;;;10.73;5.33;;;;;;;-7.65;78.12;101897.87;1642404;85;21111;-75
2022/12/05 03:36:03;;;;;;;12.63;6.07;;;;;;;-7.58;77.96;101900.56;1667992;85;21071;-79
2022/12/05 03:38:54;;;;;;;6.53;5.07;;;;;;;-7.55;77.87;101903.85;1669367;85;21151;-73
2022/12/05 03:41:40;;;;;;;12.70;7.27;;;;;;;-7.52;77.91;101898.91;1665563;85;21001;-71
2022/12/05 03:44:18;;;;;;;8.63;5.50;;;;;;;-7.50;77.71;101899.23;1671298;84;21046;-71
2022/12/05 03:46:59;;;;;;;8.43;5.20;;;;;;;-7.51;77.79;101902.77;1669388;84;21051;-69
2022/12/05 03:49:33;;;;;;;10.93;6.27;;;;;;;-7.46;77.92;101895.98;1669718;85;21137;-72
2022/12/05 03:52:13;;;;;;;10.50;5.77;;;;;;;-7.38;77.75;101899.49;1672204;85;20996;-73
2022/12/05 03:54:45;;;;;;;14.57;6.33;;;;;;;-7.40;77.43;101910.51;1672590;85;21101;-71
2022/12/05 03:57:27;;;;;;;5.70;5.00;;;;;;;-7.49;77.60;101902.69;1673214;84;20909;-76
2022/12/05 05:34:27;;;;;;;17.43;9.30;;;;;;;-8.26;84.88;101869.66;1646606;85;22966;-72
2022/12/05 05:36:54;;;;;;;16.73;8.70;;;;;;;-8.25;84.60;101874.42;1654800;85;21604;-71
2022/12/05 05:39:21;;;;;;;16.27;9.10;;;;;;;-8.21;84.54;101876.80;1643006;87;21139;-75
2022/12/05 05:41:47;;;;;;;20.60;9.37;;;;;;;-8.14;84.36;101881.23;1644308;87;21019;-72
2022/12/05 05:44:14;;;;;;;16.03;8.37;;;;;;;-8.14;83.97;101867.72;1627594;87;20991;-69
2022/12/05 05:46:40;;;;;;;13.23;7.50;;;;;;;-8.11;83.88;101879.79;1622316;87;21011;-71
2022/12/05 05:49:07;;;;;;;21.00;8.30;;;;;;;-8.03;83.89;101872.41;1642361;87;21091;-71
2022/12/05 05:51:34;;;;;;;11.97;6.93;;;;;;;-7.95;83.63;101878.08;1619019;88;21640;-70
2022/12/05 05:54:00;;;;;;;8.27;5.67;;;;;;;-7.93;83.14;101889.30;1619252;87;21075;-71
2022/12/05 05:56:27;;;;;;;17.43;7.33;;;;;;;-7.95;82.96;101892.44;1619663;87;21062;-72
2022/12/05 05:58:57;;;;;;;10.83;7.57;;;;;;;-7.94;82.89;101900.66;1624411;87;21043;-71
2022/12/05 06:01:24;;;;;;;6.97;5.77;;;;;;;-7.87;82.99;101895.53;1618641;87;21622;-70
2022/12/05 06:03:50;;;;;;;7.67;6.37;;;;;;;-7.84;82.48;101890.14;1617656;88;21630;-74
2022/12/05 06:06:18;;;;;;;7.17;4.40;;;;;;;-7.84;82.37;101896.67;1617763;87;21789;-71
2022/12/05 06:08:45;;;;;;;11.67;6.23;;;;;;;-7.83;82.22;101889.22;1642130;87;21642;-72
2022/12/05 06:11:20;;;;;;;10.73;6.17;;;;;;;-7.85;82.13;101907.18;1666239;85;21016;-69
2022/12/05 06:13:46;;;;;;;9.13;5.40;;;;;;;-7.92;82.14;101897.52;1665633;85;21084;-76
2022/12/05 06:16:14;;;;;;;9.43;5.70;;;;;;;-7.92;82.25;101897.98;1643992;87;21160;-75
2022/12/05 06:18:41;;;;;;;10.77;6.43;;;;;;;-7.90;82.25;101905.27;1643705;87;21057;-72
2022/12/05 06:21:07;;;;;;;10.37;6.40;;;;;;;-7.93;82.35;101886.69;1644203;85;21043;-74
2022/12/05 06:23:35;;;;;;;7.53;5.93;;;;;;;-7.88;82.52;101885.15;1643580;85;21039;-74
2022/12/05 06:26:02;;;;;;;12.30;6.93;;;;;;;-7.82;82.61;101884.84;1648330;85;21048;-72
2022/12/05 06:28:28;;;;;;;8.17;5.47;;;;;;;-7.83;82.34;101881.84;1648700;85;21140;-76
2022/12/05 06:30:55;;;;;;;9.80;7.17;;;;;;;-7.84;82.49;101881.45;1644354;85;21044;-74
2022/12/05 06:33:25;;;;;;;9.73;6.57;;;;;;;-7.83;82.60;101876.16;1639334;87;21616;-77
2022/12/05 06:36:04;;;;;;;7.50;5.97;;;;;;;-7.77;82.76;101870.63;1659823;86;21593;-76
2022/12/05 06:38:31;;;;;;;9.20;6.07;;;;;;;-7.65;82.75;101869.13;1625123;87;21071;-74
2022/12/05 06:40:57;;;;;;;9.10;5.53;;;;;;;-7.59;82.43;101868.82;1662725;85;21055;-73
2022/12/05 06:43:26;;;;;;;10.83;5.83;;;;;;;-7.54;82.17;101876.81;1660642;86;21079;-76
2022/12/05 06:45:52;;;;;;;10.73;5.20;;;;;;;-7.54;81.97;101874.19;1659789;86;21053;-77
2022/12/05 06:48:19;;;;;;;8.90;6.03;;;;;;;-7.52;81.71;101881.92;1625745;87;21144;-77
2022/12/05 06:50:50;;;;;;;11.77;7.80;;;;;;;-7.47;81.73;101874.70;1636086;86;21016;-75
2022/12/05 06:53:17;;;;;;;11.80;5.70;;;;;;;-7.52;81.45;101884.09;1618706;87;21895;-74
2022/12/05 06:55:46;;;;;;;17.77;6.57;;;;;;;-7.57;81.56;101882.17;1641291;86;21120;-77
2022/12/05 06:58:12;;;;;;;11.67;6.07;;;;;;;-7.56;81.67;101870.80;1661907;86;21567;-74
2022/12/05 07:03:24;;;;;;;4.80;4.13;;;;;;;-7.47;81.38;101879.92;1660017;86;21088;-73
2022/12/05 07:05:50;;;;;;;5.80;4.67;;;;;;;-7.57;81.32;101883.94;1660065;86;21239;-73
2022/12/05 07:08:17;;;;;;;12.67;6.77;;;;;;;-7.62;81.66;101881.56;1650597;86;21072;-74
2022/12/05 07:10:53;;;;;;;7.80;5.63;;;;;;;-7.61;81.74;101881.95;1651140;86;21024;-72
2022/12/05 07:13:20;;;;;;;9.87;7.20;;;;;;;-7.57;81.93;101891.78;1635142;87;20980;-74
2022/12/05 07:15:47;;;;;;;12.17;7.60;;;;;;;-7.64;81.84;101885.20;1652336;86;21072;-72
2022/12/05 07:18:16;;;;;;;10.90;7.47;;;;;;;-7.62;82.18;101889.41;1649557;86;21604;-72
2022/12/05 07:20:45;;;;;;;8.63;7.27;;;;;;;-7.61;82.28;101890.25;1638825;87;21594;-74
2022/12/05 07:23:12;;;;;;;13.43;7.70;;;;;;;-7.54;82.44;101892.48;1637287;86;21647;-72
2022/12/05 07:25:40;;;;;;;8.23;5.87;;;;;;;-7.46;82.26;101890.77;1647340;84;21092;-74
2022/12/05 07:28:07;;;;;;;11.77;6.93;;;;;;;-7.38;82.43;101884.66;1651631;86;21147;-73
2022/12/05 07:30:35;;;;;;;7.03;5.53;;;;;;;-7.41;82.24;101874.84;1633582;86;21253;-79
2022/12/05 07:33:01;;;;;;;10.30;6.50;;;;;;;-7.47;82.51;101881.69;1638956;86;21151;-73
2022/12/05 07:35:29;;;;;;;10.80;7.40;;;;;;;-7.52;82.65;101881.47;1623767;85;21024;-76
2022/12/05 07:37:55;;;;;;;8.90;7.77;;;;;;;-7.47;82.80;101880.38;1630299;87;21566;-76
2022/12/05 07:40:22;;;;;;;15.33;7.53;;;;;;;-7.40;82.88;101875.23;1643683;87;21083;-76
2022/12/05 07:42:52;;;;;;;6.87;5.27;;;;;;;-7.32;82.82;101867.35;1660483;85;21578;-77
2022/12/05 07:45:20;;;;;;;10.30;4.60;;;;;;;-7.32;82.54;101876.50;1652830;85;21080;-75
2022/12/05 07:47:47;;;;;;;9.33;5.80;;;;;;;-7.42;82.50;101864.84;1661655;85;21051;-73
2022/12/05 07:50:14;;;;;;;6.97;4.20;;;;;;;-7.46;82.87;101866.39;1669938;85;21055;-74
2022/12/05 07:52:41;;;;;;;12.73;6.50;;;;;;;-7.53;83.32;101860.18;1642034;87;21147;-73
2022/12/05 07:55:11;;;;;;;11.73;6.17;;;;;;;-7.56;83.64;101862.97;1663610;85;21183;-75
2022/12/05 07:57:37;;;;;;;10.50;6.67;;;;;;;-7.58;83.89;101856.15;1670306;85;21008;-72
2022/12/05 08:00:06;;;;;;;11.47;6.80;;;;;;;-7.61;83.96;101856.29;1670775;85;21605;-72
2022/12/05 08:02:35;;;;;;;6.93;6.17;;;;;;;-7.58;84.16;101852.23;1668091;84;21087;-73
2022/12/05 08:05:06;;;;;;;10.67;7.00;;;;;;;-7.55;84.16;101850.75;1670847;85;21056;-71
2022/12/05 08:07:33;;;;;;;11.17;8.87;;;;;;;-7.52;84.31;101847.96;1642884;87;21298;-69
2022/12/05 08:10:00;;;;;;;7.90;5.93;;;;;;;-7.50;84.44;101849.58;1632665;85;21742;-72
2022/12/05 08:12:30;;;;;;;12.37;5.13;;;;;;;-7.46;84.33;101852.88;1669133;85;21024;-72
2022/12/05 08:14:58;;;;;;;10.70;6.63;;;;;;;-7.41;84.32;101852.62;1655011;84;21047;-74
2022/12/05 08:17:29;;;;;;;11.97;7.03;;;;;;;-7.40;84.32;101853.02;1644428;85;21077;-70
2022/12/05 08:19:56;;;;;;;8.80;5.77;;;;;;;-7.39;84.33;101856.02;1651836;85;21803;-72
2022/12/05 08:22:22;;;;;;;8.63;5.20;;;;;;;-7.43;84.24;101847.96;1669133;84;21589;-72
2022/12/05 08:24:51;;;;;;;10.57;6.90;;;;;;;-7.38;84.25;101858.98;1669738;85;21610;-72
2022/12/05 08:27:18;;;;;;;12.40;5.93;;;;;;;-7.33;84.36;101852.59;1668656;85;21036;-73
2022/12/05 08:29:46;;;;;;;11.53;7.70;;;;;;;-7.30;84.26;101854.21;1669587;85;22279;-76
2022/12/05 08:32:13;;;;;;;12.27;8.00;;;;;;;-7.22;84.35;101850.25;1669992;85;21756;-74
2022/12/05 08:34:39;;;;;;;17.43;8.83;;;;;;;-7.13;84.33;101850.20;1645296;86;21075;-72
2022/12/05 08:37:10;;;;;;;11.10;7.73;;;;;;;-7.12;84.29;101850.59;1669777;86;21070;-74
2022/12/05 08:39:37;;;;;;;13.97;4.70;;;;;;;-7.08;84.17;101845.57;1660492;85;21020;-73
2022/12/05 08:42:04;;;;;;;10.13;8.23;;;;;;;-7.14;84.10;101847.20;1656782;86;21059;-75
2022/12/05 08:44:31;;;;;;;12.10;6.90;;;;;;;-7.19;84.14;101834.84;1642473;87;21752;-76
2022/12/05 08:46:57;;;;;;;5.67;5.00;;;;;;;-7.21;84.41;101832.80;1663224;86;21560;-70
2022/12/05 08:49:24;;;;;;;6.33;5.20;;;;;;;-7.27;84.70;101835.73;1650695;86;21103;-71
2022/12/05 08:51:50;;;;;;;7.13;5.90;;;;;;;-7.29;84.83;101827.16;1623270;87;21638;-74
2022/12/05 08:54:17;;;;;;;11.70;7.63;;;;;;;-7.27;85.26;101825.28;1619837;88;21114;-71
2022/12/05 08:56:43;;;;;;;9.07;6.90;;;;;;;-7.16;85.37;101827.70;1641493;86;21117;-72
2022/12/05 08:59:10;;;;;;;11.67;8.77;;;;;;;-7.06;85.27;101826.27;1622241;88;21310;-72
2022/12/05 09:01:37;;;;;;;7.90;6.83;;;;;;;-6.99;85.19;101821.98;1622566;88;21061;-70
2022/12/05 09:04:04;;;;;;;9.80;6.90;;;;;;;-6.90;85.05;101820.16;1650414;85;21612;-74
2022/12/05 09:06:33;;;;;;;4.87;4.40;;;;;;;-6.93;84.62;101816.42;1644707;87;21079;-74
2022/12/05 09:09:03;;;;;;;12.37;7.13;;;;;;;-6.94;84.68;101809.50;1644573;87;21999;-78
2022/12/05 09:11:36;;;;;;;23.87;7.40;;;;;;;-6.89;84.86;101800.47;1602730;88;21361;-78
2022/12/05 09:14:04;;;;;;;9.28;8.35;;;;;;;-6.71;85.09;101798.58;1669757;85;21552;-72
2022/12/05 09:16:37;;;;;;;10.30;8.00;;;;;;;-6.57;84.73;101797.34;1646747;87;21112;-75
2022/12/05 09:19:16;;;;;;;16.23;8.30;;;;;;;-6.52;84.36;101799.70;1644593;87;21134;-71
2022/12/05 09:21:42;;;;;;;16.30;7.50;;;;;;;-6.54;84.13;101794.54;1642984;86;22378;-71
2022/12/05 09:24:11;;;;;;;9.70;7.83;;;;;;;-6.49;83.86;101797.73;1641866;87;21048;-71
2022/12/05 09:26:40;;;;;;;9.77;8.57;;;;;;;-6.44;83.61;101794.84;1642640;86;21035;-74
2022/12/05 09:29:13;;;;;;;15.47;7.63;;;;;;;-6.48;83.24;101785.03;1641749;87;21656;-71
2022/12/05 09:31:41;;;;;;;17.27;8.27;;;;;;;-6.41;83.27;101782.87;1642920;86;21008;-71
2022/12/05 09:34:08;;;;;;;8.83;6.67;;;;;;;-6.46;83.01;101776.61;1660647;85;21090;-70
2022/12/05 09:36:35;;;;;;;10.77;6.97;;;;;;;-6.45;83.05;101786.15;1670845;85;21104;-72
2022/12/05 09:39:04;;;;;;;13.17;9.17;;;;;;;-6.47;83.04;101781.45;1670464;85;21060;-73
2022/12/05 09:42:06;;;;;;;12.27;8.03;;;;;;;-6.51;83.16;101782.58;1670003;85;21604;-74
2022/12/05 09:44:54;;;;;;;11.60;7.67;;;;;;;-6.42;83.41;101774.18;1665091;85;21529;-71
2022/12/05 09:47:49;;;;;;;14.67;7.53;;;;;;;-6.32;83.19;101781.03;1659564;85;21285;-72
2022/12/05 09:50:50;;;;;;;16.60;10.80;;;;;;;-6.35;82.96;101775.52;1671424;85;21611;-73
2022/12/05 09:53:29;;;;;;;10.60;7.03;;;;;;;-6.35;83.01;101768.98;1663200;85;21583;-74
2022/12/05 09:56:19;;;;;;;17.43;9.00;;;;;;;-6.29;82.77;101773.02;1643252;87;21087;-73
2022/12/05 09:58:49;;;;;;;17.33;8.40;;;;;;;-6.30;82.86;101773.48;1649392;85;21092;-74
2022/12/05 10:01:52;;;;;;;12.53;9.03;;;;;;;-6.27;82.90;101770.66;1656656;85;21196;-72
2022/12/05 10:04:30;;;;;;;10.88;8.08;;;;;;;-6.29;82.89;101770.39;1643751;87;21011;-71
2022/12/05 10:07:17;;;;;;;9.70;7.67;;;;;;;-6.32;83.13;101771.41;1643571;87;21032;-71
2022/12/05 10:10:13;;;;;;;9.97;8.57;;;;;;;-6.27;83.36;101762.81;1646334;85;21044;-72
2022/12/05 10:13:22;;;;;;;12.47;7.87;;;;;;;-6.15;83.45;101757.78;1644339;87;21617;-75
2022/12/05 10:15:59;;;;;;;13.07;8.50;;;;;;;-6.13;83.08;101758.52;1645220;85;21072;-77
2022/12/05 10:18:54;;;;;;;9.80;8.33;;;;;;;-6.04;83.35;101760.61;1644669;85;21051;-75
2022/12/05 10:21:41;;;;;;;12.23;8.13;;;;;;;-5.88;83.35;101761.34;1660475;85;21129;-73
2022/12/05 10:24:14;;;;;;;14.90;8.43;;;;;;;-5.74;82.95;101757.38;1671094;85;21055;-73
2022/12/05 10:26:47;;;;;;;15.27;9.17;;;;;;;-5.73;81.83;101759.91;1657636;85;21090;-75
2022/12/05 10:29:27;;;;;;;12.18;8.28;;;;;;;-5.81;81.80;101753.00;1664677;85;21144;-75
2022/12/05 10:32:00;;;;;;;9.48;7.37;;;;;;;-5.81;82.18;101749.07;1671073;85;21108;-73
2022/12/05 10:34:32;;;;;;;12.10;8.10;;;;;;;-5.84;81.85;101754.94;1649226;84;21082;-73
2022/12/05 10:37:14;;;;;;;14.27;8.47;;;;;;;-5.81;82.16;101753.47;1634691;86;21498;-76
2022/12/05 10:39:41;;;;;;;13.70;8.87;;;;;;;-5.78;82.08;101743.62;1624462;86;21095;-76
2022/12/05 10:42:12;;;;;;;22.10;11.83;;;;;;;-5.79;82.06;101749.80;1653802;86;21211;-72
2022/12/05 10:44:38;;;;;;;12.80;10.33;;;;;;;-5.77;82.15;101744.01;1654774;86;21041;-76
2022/12/05 10:47:05;;;;;;;11.60;9.17;;;;;;;-5.74;82.13;101737.25;1647014;86;21076;-75
2022/12/05 10:49:32;;;;;;;15.00;8.03;;;;;;;-5.69;82.26;101734.34;1654664;86;21530;-73
2022/12/05 10:52:01;;;;;;;14.50;8.50;;;;;;;-5.61;82.06;101732.58;1653857;86;21116;-73
2022/12/05 10:54:30;;;;;;;10.87;8.30;;;;;;;-5.58;81.99;101729.28;1653049;86;21941;-75
2022/12/05 10:56:57;;;;;;;13.37;9.07;;;;;;;-5.56;81.87;101726.58;1631628;86;21041;-73
2022/12/05 16:45:02;;;;;;;44.00;22.13;;;;;;;-6.56;82.66;101490.68;1811819;77;28875;-72
2022/12/05 16:47:49;;;;;;;44.73;22.93;;;;;;;-6.54;82.45;101488.36;1767075;81;20987;-77
2022/12/05 16:50:30;;;;;;;47.30;28.07;;;;;;;-6.48;82.17;101482.74;1759105;81;21557;-76
2022/12/05 16:53:09;;;;;;;37.73;24.17;;;;;;;-6.39;82.07;101491.78;1747489;80;20998;-84
2022/12/05 16:55:36;;;;;;;44.40;25.37;;;;;;;-6.28;81.99;101486.22;1770634;79;20968;-72
2022/12/05 16:58:03;;;;;;;35.80;22.53;;;;;;;-6.20;81.58;101490.52;1791552;78;21743;-73
2022/12/05 17:00:30;;;;;;;38.83;25.97;;;;;;;-6.09;81.42;101495.54;1782580;79;21081;-75
2022/12/05 17:02:57;;;;;;;31.97;18.90;;;;;;;-5.97;81.03;101494.73;1804409;79;21642;-82
2022/12/05 17:05:24;;;;;;;42.40;23.00;;;;;;;-5.94;80.27;101489.28;1779686;79;21064;-76
2022/12/05 17:07:51;;;;;;;49.07;24.63;;;;;;;-5.93;80.19;101486.57;1785690;79;20932;-75
2022/12/05 17:10:18;;;;;;;51.33;28.43;;;;;;;-5.95;79.77;101484.54;1783540;80;20966;-74
2022/12/05 17:12:46;;;;;;;44.70;25.20;;;;;;;-5.98;79.81;101478.64;1783370;80;21531;-80
2022/12/05 17:15:17;;;;;;;33.27;21.37;;;;;;;-5.94;79.72;101480.11;1784529;78;22140;-71
2022/12/05 17:17:44;;;;;;;39.07;23.93;;;;;;;-5.93;79.52;101475.25;1795023;78;20970;-72
2022/12/05 17:20:12;;;;;;;40.77;22.83;;;;;;;-5.90;79.48;101477.19;1808581;79;21028;-76
2022/12/05 17:22:39;;;;;;;40.60;24.97;;;;;;;-5.85;79.20;101475.58;1795558;78;21088;-72
2022/12/05 17:25:17;;;;;;;46.97;31.20;;;;;;;-5.83;79.17;101475.83;1766590;79;21630;-77
2022/12/05 17:27:44;;;;;;;32.10;20.17;;;;;;;-5.85;79.05;101479.01;1797443;78;21316;-75
2022/12/05 17:30:14;;;;;;;36.23;18.13;;;;;;;-5.82;78.96;101474.89;1804587;77;21085;-72
2022/12/05 17:32:40;;;;;;;33.70;19.90;;;;;;;-5.79;78.86;101483.00;1789890;78;20969;-77
2022/12/05 17:35:14;;;;;;;39.00;20.97;;;;;;;-5.73;78.77;101494.41;1766811;81;20946;-79
2022/12/05 17:37:41;;;;;;;57.07;28.97;;;;;;;-5.68;78.71;101485.77;1787665;78;21038;-83
2022/12/05 17:40:11;;;;;;;42.23;25.60;;;;;;;-5.61;78.57;101486.21;1771318;79;21245;-81
2022/12/05 17:42:42;;;;;;;18.43;13.90;;;;;;;-5.49;78.62;101487.53;1783265;79;21007;-83
2022/12/05 17:45:13;;;;;;;13.77;11.47;;;;;;;-5.32;78.29;101485.06;1765339;79;21015;-78
2022/12/05 17:47:40;;;;;;;11.10;7.80;;;;;;;-5.19;77.87;101478.53;1765582;79;21064;-87
2022/12/05 17:50:15;;;;;;;12.17;8.10;;;;;;;-5.12;77.07;101481.93;1749829;79;21054;-74
2022/12/05 17:52:42;;;;;;;17.70;7.87;;;;;;;-5.13;76.88;101479.44;1750162;79;21168;-72
2022/12/05 17:55:15;;;;;;;14.37;9.70;;;;;;;-5.10;76.75;101482.67;1765835;79;21050;-86
2022/12/05 17:57:44;;;;;;;;;;;;;;;-5.08;76.33;101477.30;1767736;81;21024;-84
2022/12/05 18:00:13;;;;;;;12.07;7.33;;;;;;;-5.14;75.87;101479.91;1765665;79;20608;-74
2022/12/05 18:02:42;;;;;;;10.27;8.17;;;;;;;-5.20;75.81;101477.69;1768116;79;21499;-78
2022/12/05 18:05:10;;;;;;;12.03;8.17;;;;;;;-5.30;75.75;101473.55;1758878;81;21515;-75
